Pucon, Chile
Current Conditions -  °F | °C
As of 6:00 PM on Monday 26 Jan 2015 (Local Time) from SCQP Reporting Station
Few Clouds Few Clouds  
Wind Chill: 72°   Ceiling: Unl
Heat Index: 72°   Visibility: 6mi
Dew Point: 57°   Wind: 14mph
Humidity: 60%   Direction: 240°WSW
Pressure: 29.94"   Gusts: NA
Location:  39.28°S, 71.97°W
Report Text: SCQP 262200Z 24012KT 210V270 9999 FEW020 22/14 Q1014
Loading
Personal Weather Stations






























Interactive Weather Map New forecast layout! Learn more

10-Day Weather Forecast

Advertisements
Track Severe Weather on mobile